createdAt,value
2018-11-14T00:00:23.078Z,0.00
2018-11-14T00:01:23.065Z,0.00
2018-11-14T00:02:23.066Z,0.00
2018-11-14T00:03:23.080Z,0.00
2018-11-14T00:04:23.037Z,0.00
2018-11-14T00:05:23.022Z,0.00
2018-11-14T00:06:23.014Z,0.00
2018-11-14T00:07:23.013Z,0.00
2018-11-14T00:08:22.991Z,0.00
2018-11-14T00:09:23.073Z,0.00
2018-11-14T00:10:22.978Z,0.00
2018-11-14T00:11:22.958Z,0.00
2018-11-14T00:12:22.963Z,0.00
2018-11-14T00:13:22.935Z,0.00
2018-11-14T00:14:22.930Z,0.00
2018-11-14T00:15:22.973Z,0.00
2018-11-14T00:16:22.912Z,0.00
2018-11-14T00:17:22.962Z,0.00
2018-11-14T00:18:22.885Z,0.00
2018-11-14T00:19:22.880Z,0.00
2018-11-14T00:20:22.863Z,0.00
2018-11-14T00:21:22.892Z,0.00
2018-11-14T00:22:22.859Z,0.00
2018-11-14T00:23:22.835Z,0.00
2018-11-14T00:24:22.846Z,0.00
2018-11-14T00:25:22.819Z,0.00
2018-11-14T00:26:22.800Z,0.00
2018-11-14T00:27:22.845Z,0.00
2018-11-14T00:28:22.777Z,0.00
2018-11-14T00:29:22.822Z,0.00
2018-11-14T00:30:22.757Z,0.00
2018-11-14T00:31:22.745Z,0.00
2018-11-14T00:32:22.766Z,0.00
2018-11-14T00:33:22.768Z,0.00
2018-11-14T00:34:22.729Z,0.00
2018-11-14T00:35:22.706Z,0.00
2018-11-14T00:36:22.692Z,0.00
2018-11-14T00:37:22.699Z,0.00
2018-11-14T00:38:22.672Z,0.00
2018-11-14T00:39:22.698Z,0.00
2018-11-14T00:40:22.648Z,0.00
2018-11-14T00:41:22.639Z,0.00
2018-11-14T00:42:22.646Z,0.00
2018-11-14T00:43:22.618Z,0.00
2018-11-14T00:44:22.607Z,0.00
2018-11-14T00:45:22.628Z,0.00
2018-11-14T00:46:22.588Z,0.00
2018-11-14T00:47:22.588Z,0.00
2018-11-14T00:48:22.563Z,0.00
2018-11-14T00:49:22.555Z,0.00
2018-11-14T00:50:22.546Z,0.00
2018-11-14T00:51:22.572Z,0.00
2018-11-14T00:52:22.535Z,0.00
2018-11-14T00:53:22.511Z,0.00
2018-11-14T00:54:22.497Z,0.00
2018-11-14T00:55:22.490Z,0.00
2018-11-14T00:56:22.483Z,0.00
2018-11-14T00:57:22.535Z,0.00
2018-11-14T00:58:22.456Z,0.00
2018-11-14T00:59:22.449Z,0.00
2018-11-14T01:00:22.436Z,0.00
2018-11-14T01:01:22.429Z,0.00
2018-11-14T01:02:22.428Z,0.00
2018-11-14T01:03:22.457Z,0.00
2018-11-14T01:04:22.396Z,0.00
2018-11-14T01:05:22.398Z,0.00
2018-11-14T01:06:22.374Z,0.00
2018-11-14T01:07:22.372Z,0.00
2018-11-14T01:08:22.357Z,0.00
2018-11-14T01:09:22.378Z,0.00
2018-11-14T01:10:22.329Z,0.00
2018-11-14T01:11:22.317Z,0.00
2018-11-14T01:12:22.323Z,0.00
2018-11-14T01:13:22.359Z,0.00
2018-11-14T01:14:22.287Z,0.00
2018-11-14T01:15:22.287Z,0.00
2018-11-14T01:16:22.281Z,0.00
2018-11-14T01:17:22.337Z,0.00
2018-11-14T01:18:22.246Z,0.00
2018-11-14T01:19:22.236Z,0.00
2018-11-14T01:20:22.224Z,0.00
2018-11-14T01:21:22.233Z,0.00
2018-11-14T01:22:22.214Z,0.00
2018-11-14T01:23:22.188Z,0.00
2018-11-14T01:24:22.178Z,0.00
2018-11-14T01:25:22.173Z,0.00
2018-11-14T01:26:22.162Z,0.00
2018-11-14T01:27:22.243Z,0.00
2018-11-14T01:28:22.140Z,0.00
2018-11-14T01:29:22.124Z,0.00
2018-11-14T01:30:22.113Z,0.00
2018-11-14T01:31:22.115Z,0.00
2018-11-14T01:32:22.108Z,0.00
2018-11-14T01:33:22.118Z,0.00
2018-11-14T01:34:22.073Z,0.00
2018-11-14T01:35:22.064Z,0.00
2018-11-14T01:36:22.055Z,0.00
2018-11-14T01:37:22.069Z,0.00
2018-11-14T01:38:22.033Z,0.00
2018-11-14T01:39:22.059Z,0.00
2018-11-14T01:40:22.014Z,0.00
2018-11-14T01:41:22.005Z,0.00
2018-11-14T01:42:22.001Z,0.00
2018-11-14T01:43:21.977Z,0.00
2018-11-14T01:44:21.967Z,0.00
2018-11-14T01:45:22.011Z,0.00
2018-11-14T01:46:21.946Z,0.00
2018-11-14T01:47:21.941Z,0.00
2018-11-14T01:48:21.944Z,0.00
2018-11-14T01:49:21.919Z,0.00
2018-11-14T01:50:21.918Z,0.00
2018-11-14T01:51:21.931Z,0.00
2018-11-14T01:52:21.883Z,0.00
2018-11-14T01:53:21.892Z,0.00
2018-11-14T01:54:21.871Z,0.00
2018-11-14T01:55:21.853Z,0.00
2018-11-14T01:56:21.845Z,0.00
2018-11-14T01:57:21.896Z,0.00
2018-11-14T01:58:21.842Z,0.00
2018-11-14T01:59:21.813Z,0.00
2018-11-14T02:00:21.805Z,0.00
2018-11-14T02:01:21.802Z,0.00
2018-11-14T02:02:21.792Z,0.00
2018-11-14T02:03:21.817Z,0.00
2018-11-14T02:04:21.757Z,0.00
2018-11-14T02:05:21.748Z,0.00
2018-11-14T02:06:21.738Z,0.00
2018-11-14T02:07:21.727Z,0.00
2018-11-14T02:08:21.731Z,0.00
2018-11-14T02:09:21.750Z,0.00
2018-11-14T02:10:21.700Z,0.00
2018-11-14T02:11:21.685Z,0.00
2018-11-14T02:12:21.674Z,0.00
2018-11-14T02:13:21.675Z,0.00
2018-11-14T02:14:21.658Z,0.00
2018-11-14T02:15:21.686Z,0.00
2018-11-14T02:16:21.634Z,0.00
2018-11-14T02:17:21.625Z,0.00
2018-11-14T02:18:21.623Z,0.00
2018-11-14T02:19:21.600Z,0.00
2018-11-14T02:20:21.590Z,0.00
2018-11-14T02:21:21.633Z,0.00
2018-11-14T02:22:21.569Z,0.00
2018-11-14T02:23:21.575Z,0.00
2018-11-14T02:24:21.554Z,0.00
2018-11-14T02:25:21.540Z,0.00
2018-11-14T02:26:21.530Z,0.00
2018-11-14T02:27:21.568Z,0.00
2018-11-14T02:28:21.522Z,0.00
2018-11-14T02:29:21.506Z,0.00
2018-11-14T02:30:21.487Z,0.00
2018-11-14T02:31:21.475Z,0.00
2018-11-14T02:32:21.463Z,0.00
2018-11-14T02:33:21.508Z,0.00
2018-11-14T02:34:21.440Z,0.00
2018-11-14T02:35:21.433Z,0.00
2018-11-14T02:36:21.422Z,0.00
2018-11-14T02:37:21.412Z,0.00
2018-11-14T02:38:21.417Z,0.00
2018-11-14T02:39:21.433Z,0.00
2018-11-14T02:40:21.387Z,0.00
2018-11-14T02:41:21.370Z,0.00
2018-11-14T02:42:21.362Z,0.00
2018-11-14T02:43:21.361Z,0.00
2018-11-14T02:44:21.342Z,0.00
2018-11-14T02:45:21.381Z,0.00
2018-11-14T02:46:21.317Z,0.00
2018-11-14T02:47:21.308Z,0.00
2018-11-14T02:48:21.315Z,0.00
2018-11-14T02:49:21.290Z,0.00
2018-11-14T02:50:21.276Z,0.00
2018-11-14T02:51:21.301Z,0.00
2018-11-14T02:52:21.287Z,0.00
2018-11-14T02:53:21.261Z,0.00
2018-11-14T02:54:21.268Z,0.00
2018-11-14T02:55:21.223Z,0.00
2018-11-14T02:56:21.212Z,0.00
2018-11-14T02:57:21.255Z,0.00
2018-11-14T02:58:21.204Z,0.00
2018-11-14T02:59:21.179Z,0.00
2018-11-14T03:00:21.168Z,0.00
2018-11-14T03:01:21.158Z,0.00
2018-11-14T03:02:21.146Z,0.00
2018-11-14T03:03:21.201Z,0.00
2018-11-14T03:04:21.129Z,0.00
2018-11-14T03:05:21.121Z,0.00
2018-11-14T03:06:21.107Z,0.00
2018-11-14T03:07:21.100Z,0.00
2018-11-14T03:08:21.098Z,0.00
2018-11-14T03:09:21.115Z,0.00
2018-11-14T03:10:21.062Z,0.00
2018-11-14T03:11:21.054Z,0.00
2018-11-14T03:12:21.166Z,0.00
2018-11-14T03:13:21.046Z,0.00
2018-11-14T03:14:21.024Z,0.00
2018-11-14T03:15:21.047Z,0.00
2018-11-14T03:16:21.000Z,0.00
2018-11-14T03:17:20.989Z,0.00
2018-11-14T03:18:20.991Z,0.00
2018-11-14T03:19:20.968Z,0.00
2018-11-14T03:20:20.956Z,0.00
2018-11-14T03:21:20.996Z,0.00
2018-11-14T03:22:20.938Z,0.00
2018-11-14T03:23:20.944Z,0.00
2018-11-14T03:24:20.916Z,0.00
2018-11-14T03:25:20.916Z,0.00
2018-11-14T03:26:20.931Z,0.00
2018-11-14T03:27:20.938Z,0.00
2018-11-14T03:28:20.890Z,0.00
2018-11-14T03:29:20.863Z,0.00
2018-11-14T03:30:20.856Z,0.00
2018-11-14T03:31:20.844Z,0.00
2018-11-14T03:32:20.833Z,0.00
2018-11-14T03:33:21.307Z,0.00
2018-11-14T03:34:20.816Z,0.00
2018-11-14T03:35:20.803Z,0.00
2018-11-14T03:36:20.793Z,0.00
2018-11-14T03:37:20.784Z,0.00
2018-11-14T03:38:20.794Z,0.00
2018-11-14T03:39:20.847Z,0.00
2018-11-14T03:40:20.756Z,0.00
2018-11-14T03:41:20.737Z,0.00
2018-11-14T03:42:20.730Z,0.00
2018-11-14T03:43:20.719Z,0.00
2018-11-14T03:44:20.719Z,0.00
2018-11-14T03:45:20.720Z,0.00
2018-11-14T03:46:20.691Z,0.00
2018-11-14T03:47:20.677Z,0.00
2018-11-14T03:48:20.667Z,0.00
2018-11-14T03:49:20.669Z,0.00
2018-11-14T03:50:20.648Z,0.00
2018-11-14T03:51:20.698Z,0.00
2018-11-14T03:52:20.621Z,0.00
2018-11-14T03:53:20.613Z,0.00
2018-11-14T03:54:20.619Z,0.00
2018-11-14T03:55:20.592Z,0.00
2018-11-14T03:56:20.583Z,0.00
2018-11-14T03:57:20.619Z,0.00
2018-11-14T03:58:20.614Z,0.00
2018-11-14T03:59:20.566Z,0.00
2018-11-14T04:00:20.541Z,0.00
2018-11-14T04:01:20.542Z,0.00
2018-11-14T04:02:20.519Z,0.00
2018-11-14T04:03:20.547Z,0.00
2018-11-14T04:04:20.513Z,0.00
2018-11-14T04:05:20.551Z,0.00
2018-11-14T04:06:20.480Z,0.00
2018-11-14T04:07:20.470Z,0.00
2018-11-14T04:08:20.456Z,0.00
2018-11-14T04:09:20.575Z,0.00
2018-11-14T04:10:20.434Z,0.00
2018-11-14T04:11:20.428Z,0.00
2018-11-14T04:12:20.467Z,0.00
2018-11-14T04:13:20.402Z,0.00
2018-11-14T04:14:20.409Z,0.00
2018-11-14T04:15:20.431Z,0.00
2018-11-14T04:16:20.369Z,0.00
2018-11-14T04:17:20.361Z,0.00
2018-11-14T04:18:20.352Z,0.00
2018-11-14T04:19:20.360Z,0.00
2018-11-14T04:20:20.328Z,0.00
2018-11-14T04:21:20.336Z,0.00
2018-11-14T04:22:20.307Z,0.00
2018-11-14T04:23:20.302Z,0.00
2018-11-14T04:24:20.299Z,0.00
2018-11-14T04:25:20.276Z,0.00
2018-11-14T04:26:20.268Z,0.00
2018-11-14T04:27:20.279Z,0.00
2018-11-14T04:28:20.248Z,0.00
2018-11-14T04:29:20.249Z,0.00
2018-11-14T04:30:20.229Z,0.00
2018-11-14T04:31:20.218Z,0.00
2018-11-14T04:32:20.204Z,0.00
2018-11-14T04:33:20.197Z,0.00
2018-11-14T04:34:20.243Z,0.00
2018-11-14T04:35:20.171Z,0.00
2018-11-14T04:36:20.177Z,0.00
2018-11-14T04:37:20.150Z,0.00
2018-11-14T04:38:20.142Z,0.00
2018-11-14T04:39:20.146Z,0.00
2018-11-14T04:40:20.153Z,0.00
2018-11-14T04:41:20.113Z,0.00
2018-11-14T04:42:20.098Z,0.00
2018-11-14T04:43:20.089Z,0.00
2018-11-14T04:44:20.094Z,0.00
2018-11-14T04:45:20.067Z,0.00
2018-11-14T04:46:20.122Z,0.00
2018-11-14T04:47:20.052Z,0.00
2018-11-14T04:48:20.040Z,0.00
2018-11-14T04:49:20.039Z,0.00
2018-11-14T04:50:20.025Z,0.00
2018-11-14T04:51:20.005Z,0.00
2018-11-14T04:52:20.031Z,0.00
2018-11-14T04:53:19.988Z,0.00
2018-11-14T04:54:19.996Z,0.00
2018-11-14T04:55:19.963Z,0.00
2018-11-14T04:56:19.955Z,0.00
2018-11-14T04:57:19.941Z,0.00
2018-11-14T04:58:19.965Z,0.00
2018-11-14T04:59:19.935Z,0.00
2018-11-14T05:00:19.909Z,0.00
2018-11-14T05:01:19.899Z,0.00
2018-11-14T05:02:19.920Z,0.00
2018-11-14T05:03:19.884Z,0.00
2018-11-14T05:04:19.915Z,0.00
2018-11-14T05:05:19.864Z,0.00
2018-11-14T05:06:19.849Z,0.00
2018-11-14T05:07:19.841Z,0.00
2018-11-14T05:08:19.832Z,0.00
2018-11-14T05:09:19.831Z,0.00
2018-11-14T05:10:19.851Z,0.00
2018-11-14T05:11:19.796Z,0.00
2018-11-14T05:12:19.786Z,0.00
2018-11-14T05:13:19.773Z,0.00
2018-11-14T05:14:19.788Z,0.00
2018-11-14T05:15:19.764Z,0.00
2018-11-14T05:16:19.798Z,0.00
2018-11-14T05:17:19.735Z,0.00
2018-11-14T05:18:19.722Z,0.00
2018-11-14T05:19:19.725Z,0.00
2018-11-14T05:20:19.713Z,0.00
2018-11-14T05:21:19.690Z,0.00
2018-11-14T05:22:19.723Z,0.00
2018-11-14T05:23:19.673Z,0.00
2018-11-14T05:24:19.752Z,0.00
2018-11-14T05:25:19.652Z,0.00
2018-11-14T05:26:19.638Z,0.00
2018-11-14T05:27:19.631Z,0.00
2018-11-14T05:28:19.659Z,0.00
2018-11-14T05:29:19.627Z,0.00
2018-11-14T05:30:19.595Z,0.00
2018-11-14T05:31:19.595Z,0.00
2018-11-14T05:32:19.576Z,0.00
2018-11-14T05:33:19.566Z,0.00
2018-11-14T05:34:19.567Z,0.00
2018-11-14T05:35:19.588Z,0.00
2018-11-14T05:36:19.538Z,0.00
2018-11-14T05:37:19.523Z,0.00
2018-11-14T05:38:19.515Z,0.00
2018-11-14T05:39:19.516Z,0.00
2018-11-14T05:40:19.604Z,0.00
2018-11-14T05:41:19.510Z,0.00
2018-11-14T05:42:19.471Z,0.00
2018-11-14T05:43:19.462Z,0.00
2018-11-14T05:44:19.464Z,0.00
2018-11-14T05:45:19.503Z,0.00
2018-11-14T05:46:19.431Z,0.00
2018-11-14T05:47:19.454Z,0.00
2018-11-14T05:48:19.409Z,0.00
2018-11-14T05:49:19.415Z,0.00
2018-11-14T05:50:19.385Z,0.00
2018-11-14T05:51:19.376Z,0.00
2018-11-14T05:52:19.364Z,0.00
2018-11-14T05:53:19.380Z,0.00
2018-11-14T05:54:19.359Z,0.00
2018-11-14T05:55:19.334Z,0.00
2018-11-14T05:56:19.324Z,0.00
2018-11-14T05:57:19.315Z,0.00
2018-11-14T05:58:19.302Z,0.00
2018-11-14T05:59:19.323Z,0.00
2018-11-14T06:00:19.283Z,0.00
2018-11-14T06:01:19.272Z,0.00
2018-11-14T06:02:19.262Z,0.00
2018-11-14T06:03:19.257Z,0.00
2018-11-14T06:04:19.262Z,0.00
2018-11-14T06:05:19.303Z,0.00
2018-11-14T06:06:19.219Z,0.00
2018-11-14T06:07:19.317Z,0.00
2018-11-14T06:08:19.198Z,0.00
2018-11-14T06:09:19.186Z,0.00
2018-11-14T06:10:19.192Z,0.00
2018-11-14T06:11:19.216Z,0.00
2018-11-14T06:12:19.156Z,0.00
2018-11-14T06:13:19.144Z,0.00
2018-11-14T06:14:19.145Z,0.00
2018-11-14T06:15:19.303Z,0.00
2018-11-14T06:16:19.120Z,0.00
2018-11-14T06:17:19.167Z,0.00
2018-11-14T06:18:19.095Z,0.00
2018-11-14T06:19:19.082Z,0.00
2018-11-14T06:20:19.090Z,0.00
2018-11-14T06:21:19.063Z,5.62
2018-11-14T06:22:19.063Z,5.62
2018-11-14T06:23:19.082Z,5.62
2018-11-14T06:24:19.034Z,5.62
2018-11-14T06:25:19.033Z,5.62
2018-11-14T06:26:19.009Z,5.62
2018-11-14T06:27:19.001Z,5.62
2018-11-14T06:28:18.994Z,11.25
2018-11-14T06:29:19.007Z,11.25
2018-11-14T06:30:18.980Z,11.25
2018-11-14T06:31:18.959Z,11.25
2018-11-14T06:32:18.946Z,11.25
2018-11-14T06:33:18.937Z,11.25
2018-11-14T06:34:18.923Z,11.25
2018-11-14T06:35:18.986Z,16.88
2018-11-14T06:36:18.908Z,16.88
2018-11-14T06:37:18.893Z,16.88
2018-11-14T06:38:18.887Z,16.88
2018-11-14T06:39:18.871Z,16.88
2018-11-14T06:40:18.886Z,22.50
2018-11-14T06:41:18.904Z,22.50
2018-11-14T06:42:18.838Z,28.12
2018-11-14T06:43:18.829Z,28.12
2018-11-14T06:44:18.825Z,33.75
2018-11-14T06:45:18.807Z,39.38
2018-11-14T06:46:18.812Z,45.00
2018-11-14T06:47:18.833Z,56.25
2018-11-14T06:48:18.778Z,61.88
2018-11-14T06:49:18.773Z,67.50
2018-11-14T06:50:18.755Z,67.50
2018-11-14T06:51:18.762Z,73.12
2018-11-14T06:52:18.735Z,78.75
2018-11-14T06:53:18.755Z,84.38
2018-11-14T06:54:18.713Z,90.00
2018-11-14T06:55:18.705Z,95.62
2018-11-14T06:56:18.704Z,95.62
2018-11-14T06:57:18.685Z,101.25
2018-11-14T06:58:18.676Z,101.25
2018-11-14T06:59:18.848Z,106.88
2018-11-14T07:00:18.654Z,106.88
2018-11-14T07:01:18.659Z,106.88
2018-11-14T07:02:18.632Z,112.50
2018-11-14T07:03:18.637Z,112.50
2018-11-14T07:04:18.613Z,118.12
2018-11-14T07:05:18.819Z,123.75
2018-11-14T07:06:18.699Z,118.12
2018-11-14T07:07:18.576Z,112.50
2018-11-14T07:08:18.570Z,101.25
2018-11-14T07:09:18.566Z,101.25
2018-11-14T07:10:18.550Z,101.25
2018-11-14T07:11:18.595Z,106.88
2018-11-14T07:12:18.524Z,118.12
2018-11-14T07:13:18.517Z,135.00
2018-11-14T07:14:18.503Z,140.62
2018-11-14T07:15:18.495Z,129.38
2018-11-14T07:16:18.493Z,123.75
2018-11-14T07:17:18.518Z,129.38
2018-11-14T07:18:18.477Z,140.62
2018-11-14T07:19:18.452Z,163.12
2018-11-14T07:20:18.441Z,157.50
2018-11-14T07:21:18.443Z,157.50
2018-11-14T07:22:18.420Z,163.12
2018-11-14T07:23:18.435Z,157.50
2018-11-14T07:24:18.412Z,168.75
2018-11-14T07:25:18.387Z,168.75
2018-11-14T07:26:18.392Z,174.38
2018-11-14T07:27:18.367Z,180.00
2018-11-14T07:28:18.356Z,185.62
2018-11-14T07:29:18.387Z,163.12
2018-11-14T07:30:18.334Z,168.75
2018-11-14T07:31:18.337Z,191.25
2018-11-14T07:32:18.428Z,213.75
2018-11-14T07:33:18.302Z,219.38
2018-11-14T07:34:18.295Z,230.62
2018-11-14T07:35:18.336Z,247.50
2018-11-14T07:36:18.287Z,230.62
2018-11-14T07:37:18.261Z,253.12
2018-11-14T07:38:18.250Z,253.12
2018-11-14T07:39:18.238Z,258.75
2018-11-14T07:40:18.232Z,241.88
2018-11-14T07:41:18.263Z,191.25
2018-11-14T07:42:18.207Z,123.75
2018-11-14T07:43:18.196Z,118.12
2018-11-14T07:44:18.188Z,123.75
2018-11-14T07:45:18.176Z,129.38
2018-11-14T07:46:18.176Z,129.38
2018-11-14T07:47:18.193Z,135.00
2018-11-14T07:48:18.142Z,140.62
2018-11-14T07:49:18.131Z,151.88
2018-11-14T07:50:18.150Z,163.12
2018-11-14T07:51:18.125Z,185.62
2018-11-14T07:52:18.101Z,196.88
2018-11-14T07:53:18.139Z,191.25
2018-11-14T07:54:18.081Z,180.00
2018-11-14T07:55:18.073Z,180.00
2018-11-14T07:56:18.070Z,191.25
2018-11-14T07:57:18.047Z,219.38
2018-11-14T07:58:18.047Z,230.62
2018-11-14T07:59:18.027Z,225.00
2018-11-14T08:00:18.062Z,236.25
2018-11-14T08:01:18.025Z,225.00
2018-11-14T08:02:18.135Z,225.00
2018-11-14T08:03:17.983Z,236.25
2018-11-14T08:04:17.973Z,247.50
2018-11-14T08:05:17.963Z,258.75
2018-11-14T08:06:18.018Z,258.75
2018-11-14T08:07:17.959Z,253.12
2018-11-14T08:08:18.066Z,253.12
2018-11-14T08:09:17.919Z,241.88
2018-11-14T08:10:17.907Z,225.00
2018-11-14T08:11:17.897Z,241.88
2018-11-14T08:12:17.954Z,247.50
2018-11-14T08:13:17.874Z,258.75
2018-11-14T08:14:17.867Z,286.88
2018-11-14T08:15:17.854Z,298.12
2018-11-14T08:16:17.850Z,298.12
2018-11-14T08:17:17.848Z,292.50
2018-11-14T08:18:17.893Z,303.75
2018-11-14T08:19:17.811Z,309.38
2018-11-14T08:20:17.800Z,331.88
2018-11-14T08:21:17.794Z,348.75
2018-11-14T08:22:17.796Z,348.75
2018-11-14T08:23:17.768Z,365.62
2018-11-14T08:24:17.787Z,388.12
2018-11-14T08:25:17.749Z,371.25
2018-11-14T08:26:17.739Z,376.88
2018-11-14T08:27:17.739Z,405.00
2018-11-14T08:28:17.716Z,393.75
2018-11-14T08:29:17.708Z,376.88
2018-11-14T08:30:17.737Z,360.00
2018-11-14T08:31:17.685Z,354.38
2018-11-14T08:32:17.685Z,354.38
2018-11-14T08:33:17.663Z,354.38
2018-11-14T08:34:17.651Z,354.38
2018-11-14T08:35:17.639Z,354.38
2018-11-14T08:36:17.716Z,365.62
2018-11-14T08:37:17.634Z,365.62
2018-11-14T08:38:17.610Z,382.50
2018-11-14T08:39:17.624Z,416.25
2018-11-14T08:40:17.588Z,410.62
2018-11-14T08:41:17.577Z,382.50
2018-11-14T08:42:17.619Z,382.50
2018-11-14T08:43:17.556Z,382.50
2018-11-14T08:44:17.551Z,360.00
2018-11-14T08:45:17.538Z,337.50
2018-11-14T08:46:17.524Z,337.50
2018-11-14T08:47:17.529Z,331.88
2018-11-14T08:48:17.547Z,331.88
2018-11-14T08:49:17.493Z,331.88
2018-11-14T08:50:17.554Z,326.25
2018-11-14T08:51:17.474Z,343.12
2018-11-14T08:52:17.474Z,365.62
2018-11-14T08:53:17.450Z,371.25
2018-11-14T08:54:17.478Z,348.75
2018-11-14T08:55:17.431Z,343.12
2018-11-14T08:56:17.419Z,360.00
2018-11-14T08:57:17.429Z,371.25
2018-11-14T08:58:17.399Z,371.25
2018-11-14T08:59:17.388Z,365.62
2018-11-14T09:00:17.399Z,337.50
2018-11-14T09:01:17.366Z,320.62
2018-11-14T09:02:17.379Z,315.00
2018-11-14T09:03:17.347Z,309.38
2018-11-14T09:04:17.334Z,275.62
2018-11-14T09:05:17.323Z,264.38
2018-11-14T09:06:17.427Z,281.25
2018-11-14T09:07:17.328Z,298.12
2018-11-14T09:08:17.291Z,303.75
2018-11-14T09:09:17.280Z,303.75
2018-11-14T09:10:17.271Z,315.00
2018-11-14T09:11:17.389Z,315.00
2018-11-14T09:12:17.360Z,309.38
2018-11-14T09:13:17.251Z,303.75
2018-11-14T09:14:17.235Z,315.00
2018-11-14T09:15:17.220Z,331.88
2018-11-14T09:16:17.206Z,331.88
2018-11-14T09:17:17.195Z,326.25
2018-11-14T09:18:17.266Z,326.25
2018-11-14T09:19:17.177Z,331.88
2018-11-14T09:20:17.162Z,320.62
2018-11-14T09:21:17.153Z,315.00
2018-11-14T09:22:17.143Z,320.62
2018-11-14T09:23:17.144Z,331.88
2018-11-14T09:24:17.152Z,331.88
2018-11-14T09:25:17.115Z,337.50
2018-11-14T09:26:17.099Z,337.50
2018-11-14T09:27:17.096Z,337.50
2018-11-14T09:28:17.095Z,343.12
2018-11-14T09:29:17.070Z,331.88
2018-11-14T09:30:17.102Z,320.62
2018-11-14T09:31:17.051Z,331.88
2018-11-14T09:32:17.039Z,343.12
2018-11-14T09:33:17.106Z,348.75
2018-11-14T09:34:17.018Z,360.00
2018-11-14T09:35:17.006Z,376.88
2018-11-14T09:36:17.024Z,388.12
2018-11-14T09:37:16.987Z,399.38
2018-11-14T09:38:16.997Z,410.62
2018-11-14T09:39:16.962Z,421.88
2018-11-14T09:40:16.951Z,410.62
2018-11-14T09:41:16.965Z,421.88
2018-11-14T09:42:16.957Z,450.00
2018-11-14T09:43:16.934Z,438.75
2018-11-14T09:44:16.917Z,450.00
2018-11-14T09:45:16.900Z,483.75
2018-11-14T09:46:16.889Z,506.25
2018-11-14T09:47:16.880Z,506.25
2018-11-14T09:48:16.921Z,500.62
2018-11-14T09:49:16.935Z,478.12
2018-11-14T09:50:16.846Z,472.50
2018-11-14T09:51:16.834Z,483.75
2018-11-14T09:52:16.823Z,489.38
2018-11-14T09:53:16.907Z,495.00
2018-11-14T09:54:16.837Z,511.88
2018-11-14T09:55:16.794Z,511.88
2018-11-14T09:56:16.783Z,495.00
2018-11-14T09:57:16.770Z,489.38
2018-11-14T09:58:16.773Z,483.75
2018-11-14T09:59:16.755Z,472.50
2018-11-14T10:00:16.767Z,466.88
2018-11-14T10:01:16.726Z,466.88
2018-11-14T10:02:16.716Z,466.88
2018-11-14T10:03:16.716Z,466.88
2018-11-14T10:04:16.702Z,461.25
2018-11-14T10:05:16.685Z,455.62
2018-11-14T10:06:16.698Z,461.25
2018-11-14T10:07:16.662Z,455.62
2018-11-14T10:08:16.665Z,472.50
2018-11-14T10:09:16.639Z,511.88
2018-11-14T10:10:16.631Z,545.62
2018-11-14T10:11:16.667Z,551.25
2018-11-14T10:12:16.629Z,556.88
2018-11-14T10:13:16.633Z,540.00
2018-11-14T10:14:16.586Z,495.00
2018-11-14T10:15:16.579Z,455.62
2018-11-14T10:16:16.573Z,450.00
2018-11-14T10:17:16.588Z,450.00
2018-11-14T10:18:16.633Z,455.62
2018-11-14T10:19:16.537Z,461.25
2018-11-14T10:20:16.521Z,472.50
2018-11-14T10:21:16.631Z,472.50
2018-11-14T10:22:16.500Z,483.75
2018-11-14T10:23:16.545Z,500.62
2018-11-14T10:24:16.480Z,523.12
2018-11-14T10:25:16.468Z,500.62
2018-11-14T10:26:16.461Z,489.38
2018-11-14T10:27:16.453Z,478.12
2018-11-14T10:28:16.451Z,489.38
2018-11-14T10:29:16.470Z,495.00
2018-11-14T10:30:16.429Z,500.62
2018-11-14T10:31:16.402Z,506.25
2018-11-14T10:32:16.394Z,500.62
2018-11-14T10:33:16.400Z,500.62
2018-11-14T10:34:16.372Z,478.12
2018-11-14T10:35:16.486Z,478.12
2018-11-14T10:36:16.352Z,495.00
2018-11-14T10:37:16.341Z,495.00
2018-11-14T10:38:16.343Z,500.62
2018-11-14T10:39:16.319Z,506.25
2018-11-14T10:40:16.308Z,511.88
2018-11-14T10:41:16.379Z,523.12
2018-11-14T10:42:16.285Z,528.75
2018-11-14T10:43:16.293Z,523.12
2018-11-14T10:44:16.266Z,500.62
2018-11-14T10:45:16.258Z,489.38
2018-11-14T10:46:16.243Z,472.50
2018-11-14T10:47:16.288Z,489.38
2018-11-14T10:48:16.249Z,495.00
2018-11-14T10:49:16.213Z,489.38
2018-11-14T10:50:16.202Z,483.75
2018-11-14T10:51:16.190Z,495.00
2018-11-14T10:52:16.179Z,495.00
2018-11-14T10:53:16.197Z,500.62
2018-11-14T10:54:16.173Z,511.88
2018-11-14T10:55:16.151Z,511.88
2018-11-14T10:56:16.138Z,506.25
2018-11-14T10:57:16.127Z,489.38
2018-11-14T10:58:16.175Z,489.38
2018-11-14T10:59:16.173Z,483.75
2018-11-14T11:00:16.093Z,472.50
2018-11-14T11:01:16.083Z,455.62
2018-11-14T11:02:16.083Z,433.12
2018-11-14T11:03:16.067Z,427.50
2018-11-14T11:04:16.080Z,433.12
2018-11-14T11:05:16.039Z,433.12
2018-11-14T11:06:16.074Z,427.50
2018-11-14T11:07:16.022Z,444.38
2018-11-14T11:08:16.205Z,466.88
2018-11-14T11:09:16.013Z,466.88
2018-11-14T11:10:15.994Z,450.00
2018-11-14T11:11:15.974Z,450.00
2018-11-14T11:12:16.028Z,466.88
2018-11-14T11:13:15.964Z,495.00
2018-11-14T11:14:15.955Z,500.62
2018-11-14T11:15:15.932Z,489.38
2018-11-14T11:16:15.922Z,478.12
2018-11-14T11:17:15.917Z,489.38
2018-11-14T11:18:15.937Z,483.75
2018-11-14T11:19:15.900Z,489.38
2018-11-14T11:20:15.878Z,511.88
2018-11-14T11:21:15.869Z,528.75
2018-11-14T11:22:15.856Z,500.62
2018-11-14T11:23:15.856Z,495.00
2018-11-14T11:24:15.878Z,500.62
2018-11-14T11:25:15.824Z,506.25
2018-11-14T11:26:15.813Z,528.75
2018-11-14T11:27:15.803Z,528.75
2018-11-14T11:28:15.800Z,528.75
2018-11-14T11:29:15.815Z,528.75
2018-11-14T11:30:15.801Z,545.62
2018-11-14T11:31:15.769Z,562.50
2018-11-14T11:32:15.748Z,556.88
2018-11-14T11:33:15.745Z,540.00
2018-11-14T11:34:15.727Z,495.00
2018-11-14T11:35:15.743Z,450.00
2018-11-14T11:36:15.734Z,433.12
2018-11-14T11:37:15.696Z,433.12
2018-11-14T11:38:15.771Z,438.75
2018-11-14T11:39:15.697Z,444.38
2018-11-14T11:40:15.677Z,450.00
2018-11-14T11:41:15.709Z,472.50
2018-11-14T11:42:15.668Z,483.75
2018-11-14T11:43:15.649Z,506.25
2018-11-14T11:44:15.655Z,534.38
2018-11-14T11:45:15.748Z,517.50
2018-11-14T11:46:15.597Z,500.62
2018-11-14T11:47:15.588Z,483.75
2018-11-14T11:48:15.578Z,466.88
2018-11-14T11:49:15.769Z,461.25
2018-11-14T11:50:15.567Z,466.88
2018-11-14T11:51:15.718Z,478.12
2018-11-14T11:52:15.533Z,472.50
2018-11-14T11:53:15.635Z,478.12
2018-11-14T11:54:15.512Z,483.75
2018-11-14T11:55:15.918Z,472.50
2018-11-14T11:56:15.494Z,466.88
2018-11-14T11:57:15.496Z,472.50
2018-11-14T11:58:15.498Z,472.50
2018-11-14T11:59:15.509Z,489.38
2018-11-14T12:00:15.574Z,489.38
2018-11-14T12:01:15.470Z,506.25
2018-11-14T12:02:15.534Z,523.12
2018-11-14T12:03:15.448Z,500.62
2018-11-14T12:04:15.405Z,478.12
2018-11-14T12:05:15.410Z,483.75
2018-11-14T12:06:15.568Z,483.75
2018-11-14T12:07:15.373Z,489.38
2018-11-14T12:08:15.363Z,528.75
2018-11-14T12:09:15.354Z,573.75
2018-11-14T12:10:15.358Z,596.25
2018-11-14T12:11:15.330Z,618.75
2018-11-14T12:12:15.364Z,641.25
2018-11-14T12:13:15.345Z,624.38
2018-11-14T12:14:15.305Z,618.75
2018-11-14T12:15:15.305Z,624.38
2018-11-14T12:16:15.317Z,618.75
2018-11-14T12:17:15.267Z,573.75
2018-11-14T12:18:15.257Z,523.12
2018-11-14T12:19:15.371Z,489.38
2018-11-14T12:20:15.251Z,472.50
2018-11-14T12:21:15.228Z,450.00
2018-11-14T12:22:15.215Z,433.12
2018-11-14T12:23:15.208Z,416.25
2018-11-14T12:24:15.191Z,405.00
2018-11-14T12:25:15.227Z,427.50
2018-11-14T12:26:15.172Z,438.75
2018-11-14T12:27:15.201Z,450.00
2018-11-14T12:28:15.152Z,466.88
2018-11-14T12:29:15.140Z,466.88
2018-11-14T12:30:15.171Z,466.88
2018-11-14T12:31:15.368Z,478.12
2018-11-14T12:32:15.107Z,483.75
2018-11-14T12:33:15.099Z,461.25
2018-11-14T12:34:15.086Z,438.75
2018-11-14T12:35:15.164Z,444.38
2018-11-14T12:36:15.065Z,421.88
2018-11-14T12:37:15.099Z,410.62
2018-11-14T12:38:15.044Z,433.12
2018-11-14T12:39:15.035Z,450.00
2018-11-14T12:40:15.039Z,433.12
2018-11-14T12:41:15.013Z,421.88
2018-11-14T12:42:15.002Z,405.00
2018-11-14T12:43:15.032Z,405.00
2018-11-14T12:44:14.978Z,410.62
2018-11-14T12:45:15.017Z,421.88
2018-11-14T12:46:14.959Z,433.12
2018-11-14T12:47:14.951Z,438.75
2018-11-14T12:48:14.937Z,455.62
2018-11-14T12:49:14.962Z,466.88
2018-11-14T12:50:14.928Z,483.75
2018-11-14T12:51:14.905Z,461.25
2018-11-14T12:52:14.893Z,433.12
2018-11-14T12:53:14.883Z,416.25